sensor_id;sensor_type;location;lat;lon;timestamp;pressure;altitude;pressure_sealevel;temperature;humidity
74329;BME280;62749;51.982;5.916;2023-11-21T00:00:01;100728.66;;;8.88;100.00
74329;BME280;62749;51.982;5.916;2023-11-21T00:02:49;100727.03;;;8.84;100.00
74329;BME280;62749;51.982;5.916;2023-11-21T00:05:24;100717.66;;;8.77;100.00
74329;BME280;62749;51.982;5.916;2023-11-21T00:07:54;100733.25;;;8.83;100.00
74329;BME280;62749;51.982;5.916;2023-11-21T00:13:53;100739.44;;;8.82;100.00
74329;BME280;62749;51.982;5.916;2023-11-21T00:16:51;100743.78;;;8.83;100.00
74329;BME280;62749;51.982;5.916;2023-11-21T00:19:27;100741.28;;;8.79;100.00
74329;BME280;62749;51.982;5.916;2023-11-21T00:24:57;100741.44;;;8.75;100.00
74329;BME280;62749;51.982;5.916;2023-11-21T00:27:42;100746.69;;;8.75;100.00
74329;BME280;62749;51.982;5.916;2023-11-21T00:30:20;100743.09;;;8.78;100.00
74329;BME280;62749;51.982;5.916;2023-11-21T00:32:57;100744.06;;;8.75;100.00
74329;BME280;62749;51.982;5.916;2023-11-21T00:38:57;100749.53;;;8.69;100.00
74329;BME280;62749;51.982;5.916;2023-11-21T00:41:26;100745.13;;;8.70;100.00
74329;BME280;62749;51.982;5.916;2023-11-21T00:43:57;100746.09;;;8.67;100.00
74329;BME280;62749;51.982;5.916;2023-11-21T00:46:29;100752.91;;;8.73;100.00
74329;BME280;62749;51.982;5.916;2023-11-21T00:49:27;100754.75;;;8.71;100.00
74329;BME280;62749;51.982;5.916;2023-11-21T00:52:12;100751.19;;;8.72;100.00
74329;BME280;62749;51.982;5.916;2023-11-21T00:54:50;100753.13;;;8.67;100.00
74329;BME280;62749;51.982;5.916;2023-11-21T00:57:44;100760.97;;;8.68;100.00
74329;BME280;62749;51.982;5.916;2023-11-21T01:00:35;100761.72;;;8.72;100.00
74329;BME280;62749;51.982;5.916;2023-11-21T01:03:21;100775.59;;;8.77;100.00
74329;BME280;62749;51.982;5.916;2023-11-21T01:05:58;100779.53;;;8.90;100.00
74329;BME280;62749;51.982;5.916;2023-11-21T01:08:27;100785.72;;;8.89;100.00
74329;BME280;62749;51.982;5.916;2023-11-21T01:14:17;100791.16;;;8.85;100.00
74329;BME280;62749;51.982;5.916;2023-11-21T01:17:06;100781.34;;;8.88;100.00
74329;BME280;62749;51.982;5.916;2023-11-21T01:19:45;100790.06;;;8.90;100.00
74329;BME280;62749;51.982;5.916;2023-11-21T01:22:37;100799.13;;;8.83;100.00
74329;BME280;62749;51.982;5.916;2023-11-21T01:25:30;100802.84;;;8.76;100.00
74329;BME280;62749;51.982;5.916;2023-11-21T01:28:17;100807.44;;;8.71;100.00
74329;BME280;62749;51.982;5.916;2023-11-21T01:30:46;100817.75;;;8.77;100.00
74329;BME280;62749;51.982;5.916;2023-11-21T01:33:33;100810.56;;;8.82;100.00
74329;BME280;62749;51.982;5.916;2023-11-21T01:36:10;100807.16;;;8.79;100.00
74329;BME280;62749;51.982;5.916;2023-11-21T01:38:56;100813.06;;;8.85;100.00
74329;BME280;62749;51.982;5.916;2023-11-21T01:44:36;100812.53;;;8.75;100.00
74329;BME280;62749;51.982;5.916;2023-11-21T01:47:22;100821.19;;;8.79;100.00
74329;BME280;62749;51.982;5.916;2023-11-21T01:50:08;100811.06;;;8.67;100.00
74329;BME280;62749;51.982;5.916;2023-11-21T01:53:00;100814.28;;;8.77;100.00
74329;BME280;62749;51.982;5.916;2023-11-21T01:55:48;100814.09;;;8.81;100.00
74329;BME280;62749;51.982;5.916;2023-11-21T01:58:34;100813.28;;;8.79;100.00
74329;BME280;62749;51.982;5.916;2023-11-21T02:01:26;100812.72;;;8.71;100.00
74329;BME280;62749;51.982;5.916;2023-11-21T02:07:31;100825.66;;;8.77;100.00
74329;BME280;62749;51.982;5.916;2023-11-21T02:10:14;100821.19;;;8.79;100.00
74329;BME280;62749;51.982;5.916;2023-11-21T02:12:49;100823.25;;;8.71;100.00
74329;BME280;62749;51.982;5.916;2023-11-21T02:15:34;100820.72;;;8.66;100.00
74329;BME280;62749;51.982;5.916;2023-11-21T02:21:34;100818.72;;;8.74;100.00
74329;BME280;62749;51.982;5.916;2023-11-21T02:27:44;100831.41;;;8.63;100.00
74329;BME280;62749;51.982;5.916;2023-11-21T02:30:24;100835.59;;;8.69;100.00
74329;BME280;62749;51.982;5.916;2023-11-21T02:36:10;100842.59;;;8.70;100.00
74329;BME280;62749;51.982;5.916;2023-11-21T02:38:53;100846.28;;;8.64;100.00
74329;BME280;62749;51.982;5.916;2023-11-21T02:41:31;100843.50;;;8.69;100.00
74329;BME280;62749;51.982;5.916;2023-11-21T02:44:26;100845.22;;;8.70;100.00
74329;BME280;62749;51.982;5.916;2023-11-21T02:46:59;100839.22;;;8.65;100.00
74329;BME280;62749;51.982;5.916;2023-11-21T02:52:51;100841.63;;;8.72;100.00
74329;BME280;62749;51.982;5.916;2023-11-21T02:55:33;100846.97;;;8.69;100.00
74329;BME280;62749;51.982;5.916;2023-11-21T02:58:09;100844.56;;;8.63;100.00
74329;BME280;62749;51.982;5.916;2023-11-21T03:00:52;100841.72;;;8.69;100.00
74329;BME280;62749;51.982;5.916;2023-11-21T03:03:33;100835.84;;;8.61;100.00
74329;BME280;62749;51.982;5.916;2023-11-21T03:06:33;100842.88;;;8.60;100.00
74329;BME280;62749;51.982;5.916;2023-11-21T03:09:14;100843.00;;;8.57;100.00
74329;BME280;62749;51.982;5.916;2023-11-21T03:11:53;100853.72;;;8.51;100.00
74329;BME280;62749;51.982;5.916;2023-11-21T03:14:51;100844.84;;;8.54;100.00
74329;BME280;62749;51.982;5.916;2023-11-21T03:17:30;100838.78;;;8.52;100.00
74329;BME280;62749;51.982;5.916;2023-11-21T03:20:00;100843.38;;;8.45;100.00
74329;BME280;62749;51.982;5.916;2023-11-21T03:22:31;100855.53;;;8.49;100.00
74329;BME280;62749;51.982;5.916;2023-11-21T03:28:07;100861.72;;;8.47;100.00
74329;BME280;62749;51.982;5.916;2023-11-21T03:30:46;100852.00;;;8.50;100.00
74329;BME280;62749;51.982;5.916;2023-11-21T03:33:34;100858.78;;;8.57;100.00
74329;BME280;62749;51.982;5.916;2023-11-21T03:36:17;100868.59;;;8.52;100.00
74329;BME280;62749;51.982;5.916;2023-11-21T03:39:12;100869.50;;;8.51;100.00
74329;BME280;62749;51.982;5.916;2023-11-21T03:44:42;100879.19;;;8.51;100.00
74329;BME280;62749;51.982;5.916;2023-11-21T03:47:13;100870.25;;;8.56;100.00
74329;BME280;62749;51.982;5.916;2023-11-21T03:49:58;100874.59;;;8.57;100.00
74329;BME280;62749;51.982;5.916;2023-11-21T03:52:38;100874.72;;;8.53;100.00
74329;BME280;62749;51.982;5.916;2023-11-21T03:55:11;100868.59;;;8.52;100.00
74329;BME280;62749;51.982;5.916;2023-11-21T03:57:41;100865.75;;;8.58;100.00
74329;BME280;62749;51.982;5.916;2023-11-21T04:00:35;100871.16;;;8.55;100.00
74329;BME280;62749;51.982;5.916;2023-11-21T04:03:16;100878.91;;;8.58;100.00
74329;BME280;62749;51.982;5.916;2023-11-21T04:05:53;100871.38;;;8.46;100.00
74329;BME280;62749;51.982;5.916;2023-11-21T04:08:29;100883.66;;;8.49;100.00
74329;BME280;62749;51.982;5.916;2023-11-21T04:11:01;100886.19;;;8.52;100.00
74329;BME280;62749;51.982;5.916;2023-11-21T04:13:46;100890.56;;;8.51;100.00
74329;BME280;62749;51.982;5.916;2023-11-21T04:16:26;100899.44;;;8.47;100.00
74329;BME280;62749;51.982;5.916;2023-11-21T04:18:57;100895.09;;;8.46;100.00
74329;BME280;62749;51.982;5.916;2023-11-21T04:21:36;100903.75;;;8.51;100.00
74329;BME280;62749;51.982;5.916;2023-11-21T04:24:31;100906.38;;;8.51;100.00
74329;BME280;62749;51.982;5.916;2023-11-21T04:27:02;100905.38;;;8.55;100.00
74329;BME280;62749;51.982;5.916;2023-11-21T04:29:45;100907.25;;;8.52;100.00
74329;BME280;62749;51.982;5.916;2023-11-21T04:32:22;100913.38;;;8.52;100.00
74329;BME280;62749;51.982;5.916;2023-11-21T04:35:11;100917.88;;;8.47;100.00
74329;BME280;62749;51.982;5.916;2023-11-21T04:37:44;100921.31;;;8.51;100.00
74329;BME280;62749;51.982;5.916;2023-11-21T04:40:43;100924.25;;;8.40;100.00
74329;BME280;62749;51.982;5.916;2023-11-21T04:43:12;100926.88;;;8.40;100.00
74329;BME280;62749;51.982;5.916;2023-11-21T04:45:43;100931.38;;;8.36;100.00
74329;BME280;62749;51.982;5.916;2023-11-21T04:48:14;100937.63;;;8.32;100.00
74329;BME280;62749;51.982;5.916;2023-11-21T04:50:51;100932.16;;;8.40;100.00
74329;BME280;62749;51.982;5.916;2023-11-21T04:53:54;100939.84;;;8.46;100.00
74329;BME280;62749;51.982;5.916;2023-11-21T04:56:47;100943.41;;;8.45;100.00
74329;BME280;62749;51.982;5.916;2023-11-21T04:59:40;100948.41;;;8.54;100.00
74329;BME280;62749;51.982;5.916;2023-11-21T05:02:15;100960.69;;;8.55;100.00
74329;BME280;62749;51.982;5.916;2023-11-21T05:04:51;100950.31;;;8.49;100.00
74329;BME280;62749;51.982;5.916;2023-11-21T05:10:48;100959.22;;;8.45;100.00
74329;BME280;62749;51.982;5.916;2023-11-21T05:13:26;100959.94;;;8.50;100.00
74329;BME280;62749;51.982;5.916;2023-11-21T05:16:09;100963.81;;;8.37;100.00
74329;BME280;62749;51.982;5.916;2023-11-21T05:18:40;100960.06;;;8.45;100.00
74329;BME280;62749;51.982;5.916;2023-11-21T05:21:16;100962.97;;;8.36;100.00
74329;BME280;62749;51.982;5.916;2023-11-21T05:23:47;100966.16;;;8.46;100.00
74329;BME280;62749;51.982;5.916;2023-11-21T05:26:20;100967.91;;;8.49;100.00
74329;BME280;62749;51.982;5.916;2023-11-21T05:28:57;100967.09;;;8.45;100.00
74329;BME280;62749;51.982;5.916;2023-11-21T05:31:39;100974.00;;;8.49;100.00
74329;BME280;62749;51.982;5.916;2023-11-21T05:40:27;100985.53;;;8.45;100.00
74329;BME280;62749;51.982;5.916;2023-11-21T05:43:14;100988.09;;;8.48;100.00
74329;BME280;62749;51.982;5.916;2023-11-21T05:46:01;100982.09;;;8.43;100.00
74329;BME280;62749;51.982;5.916;2023-11-21T05:48:36;100988.06;;;8.50;100.00
74329;BME280;62749;51.982;5.916;2023-11-21T05:51:07;100993.47;;;8.43;100.00
74329;BME280;62749;51.982;5.916;2023-11-21T05:53:44;101002.34;;;8.39;100.00
74329;BME280;62749;51.982;5.916;2023-11-21T05:59:22;101011.94;;;8.42;100.00
74329;BME280;62749;51.982;5.916;2023-11-21T06:05:11;101016.16;;;8.49;100.00
74329;BME280;62749;51.982;5.916;2023-11-21T06:07:47;101024.88;;;8.51;100.00
74329;BME280;62749;51.982;5.916;2023-11-21T06:16:41;101025.53;;;8.58;100.00
74329;BME280;62749;51.982;5.916;2023-11-21T06:19:18;101033.50;;;8.56;100.00
74329;BME280;62749;51.982;5.916;2023-11-21T06:21:49;101036.91;;;8.60;100.00
74329;BME280;62749;51.982;5.916;2023-11-21T06:27:31;101044.75;;;8.62;100.00
74329;BME280;62749;51.982;5.916;2023-11-21T06:30:31;101043.81;;;8.64;100.00
74329;BME280;62749;51.982;5.916;2023-11-21T06:33:04;101044.59;;;8.66;100.00
74329;BME280;62749;51.982;5.916;2023-11-21T06:38:38;101041.13;;;8.66;100.00
74329;BME280;62749;51.982;5.916;2023-11-21T06:41:11;101058.66;;;8.67;100.00
74329;BME280;62749;51.982;5.916;2023-11-21T06:43:47;101054.22;;;8.69;100.00
74329;BME280;62749;51.982;5.916;2023-11-21T06:46:16;101065.59;;;8.69;100.00
74329;BME280;62749;51.982;5.916;2023-11-21T06:52:29;101061.22;;;8.68;100.00
74329;BME280;62749;51.982;5.916;2023-11-21T06:55:11;101060.09;;;8.77;100.00
74329;BME280;62749;51.982;5.916;2023-11-21T06:57:48;101067.00;;;8.81;100.00
74329;BME280;62749;51.982;5.916;2023-11-21T07:00:18;101068.88;;;8.78;100.00
74329;BME280;62749;51.982;5.916;2023-11-21T07:09:15;101076.09;;;8.71;100.00
74329;BME280;62749;51.982;5.916;2023-11-21T07:15:08;101099.59;;;8.77;100.00
74329;BME280;62749;51.982;5.916;2023-11-21T07:17:38;101099.28;;;8.88;100.00
74329;BME280;62749;51.982;5.916;2023-11-21T07:20:33;101107.38;;;8.82;100.00
74329;BME280;62749;51.982;5.916;2023-11-21T07:29:29;101127.47;;;8.86;100.00
74329;BME280;62749;51.982;5.916;2023-11-21T07:32:01;101133.41;;;8.93;100.00
74329;BME280;62749;51.982;5.916;2023-11-21T07:34:49;101123.09;;;8.85;100.00
74329;BME280;62749;51.982;5.916;2023-11-21T07:37:19;101131.84;;;8.85;100.00
74329;BME280;62749;51.982;5.916;2023-11-21T07:39:52;101129.03;;;8.92;100.00
74329;BME280;62749;51.982;5.916;2023-11-21T07:46:02;101135.84;;;8.99;100.00
74329;BME280;62749;51.982;5.916;2023-11-21T07:48:42;101141.13;;;8.99;100.00
74329;BME280;62749;51.982;5.916;2023-11-21T07:54:25;101145.47;;;9.00;100.00
74329;BME280;62749;51.982;5.916;2023-11-21T08:00:09;101163.72;;;9.08;100.00
74329;BME280;62749;51.982;5.916;2023-11-21T08:02:54;101160.16;;;9.09;100.00
74329;BME280;62749;51.982;5.916;2023-11-21T08:05:44;101167.22;;;9.08;100.00
74329;BME280;62749;51.982;5.916;2023-11-21T08:08:21;101167.38;;;9.03;100.00
74329;BME280;62749;51.982;5.916;2023-11-21T08:11:19;101167.38;;;9.02;100.00
74329;BME280;62749;51.982;5.916;2023-11-21T08:14:09;101181.19;;;9.10;100.00
74329;BME280;62749;51.982;5.916;2023-11-21T08:16:52;101183.13;;;9.05;100.00
74329;BME280;62749;51.982;5.916;2023-11-21T08:19:37;101196.22;;;9.06;100.00
74329;BME280;62749;51.982;5.916;2023-11-21T08:25:27;101209.28;;;9.11;100.00
74329;BME280;62749;51.982;5.916;2023-11-21T08:31:26;101218.66;;;9.21;100.00
74329;BME280;62749;51.982;5.916;2023-11-21T08:34:04;101216.88;;;9.22;100.00
74329;BME280;62749;51.982;5.916;2023-11-21T08:36:45;101230.06;;;9.22;100.00
74329;BME280;62749;51.982;5.916;2023-11-21T08:39:23;101225.63;;;9.24;100.00
74329;BME280;62749;51.982;5.916;2023-11-21T08:41:53;101229.91;;;9.28;100.00
74329;BME280;62749;51.982;5.916;2023-11-21T08:47:35;101226.44;;;9.26;100.00
74329;BME280;62749;51.982;5.916;2023-11-21T08:50:18;101232.47;;;9.30;100.00
74329;BME280;62749;51.982;5.916;2023-11-21T08:52:59;101235.03;;;9.33;100.00
74329;BME280;62749;51.982;5.916;2023-11-21T08:55:46;101233.22;;;9.35;100.00
74329;BME280;62749;51.982;5.916;2023-11-21T08:58:17;101237.47;;;9.39;100.00
74329;BME280;62749;51.982;5.916;2023-11-21T09:00:48;101231.25;;;9.42;100.00
74329;BME280;62749;51.982;5.916;2023-11-21T09:09:51;101254.19;;;9.38;100.00
74329;BME280;62749;51.982;5.916;2023-11-21T09:12:44;101255.09;;;9.37;100.00
74329;BME280;62749;51.982;5.916;2023-11-21T09:18:55;101266.53;;;9.38;100.00
74329;BME280;62749;51.982;5.916;2023-11-21T09:21:31;101281.38;;;9.42;100.00
74329;BME280;62749;51.982;5.916;2023-11-21T09:24:18;101277.06;;;9.38;100.00
74329;BME280;62749;51.982;5.916;2023-11-21T09:26:50;101285.84;;;9.38;100.00
74329;BME280;62749;51.982;5.916;2023-11-21T09:29:37;101283.94;;;9.43;100.00
74329;BME280;62749;51.982;5.916;2023-11-21T09:38:54;101299.63;;;9.48;100.00
74329;BME280;62749;51.982;5.916;2023-11-21T09:41:40;101316.13;;;9.55;100.00
74329;BME280;62749;51.982;5.916;2023-11-21T09:44:32;101314.25;;;9.58;100.00
74329;BME280;62749;51.982;5.916;2023-11-21T09:47:06;101315.16;;;9.59;100.00
74329;BME280;62749;51.982;5.916;2023-11-21T09:49:59;101317.66;;;9.62;100.00
74329;BME280;62749;51.982;5.916;2023-11-21T09:52:44;101320.44;;;9.57;100.00
74329;BME280;62749;51.982;5.916;2023-11-21T09:55:42;101328.13;;;9.65;100.00
74329;BME280;62749;51.982;5.916;2023-11-21T09:58:36;101330.69;;;9.68;100.00
74329;BME280;62749;51.982;5.916;2023-11-21T10:01:08;101338.44;;;9.74;100.00
74329;BME280;62749;51.982;5.916;2023-11-21T10:03:45;101339.22;;;9.78;100.00
74329;BME280;62749;51.982;5.916;2023-11-21T10:06:17;101338.09;;;9.85;100.00
74329;BME280;62749;51.982;5.916;2023-11-21T10:12:02;101340.94;;;10.07;100.00
74329;BME280;62749;51.982;5.916;2023-11-21T10:14:37;101349.59;;;10.12;100.00
74329;BME280;62749;51.982;5.916;2023-11-21T10:17:14;101347.06;;;10.08;100.00
74329;BME280;62749;51.982;5.916;2023-11-21T10:23:00;101352.13;;;10.16;100.00
74329;BME280;62749;51.982;5.916;2023-11-21T10:25:41;101357.31;;;10.19;100.00
74329;BME280;62749;51.982;5.916;2023-11-21T10:31:24;101365.06;;;10.25;100.00
74329;BME280;62749;51.982;5.916;2023-11-21T10:34:15;101368.50;;;10.27;100.00
74329;BME280;62749;51.982;5.916;2023-11-21T10:36:49;101365.84;;;10.27;100.00
74329;BME280;62749;51.982;5.916;2023-11-21T10:39:25;101370.28;;;10.26;100.00
74329;BME280;62749;51.982;5.916;2023-11-21T10:42:14;101370.88;;;10.35;100.00
74329;BME280;62749;51.982;5.916;2023-11-21T10:45:08;101372.63;;;10.36;100.00
74329;BME280;62749;51.982;5.916;2023-11-21T10:47:56;101376.88;;;10.41;100.00
74329;BME280;62749;51.982;5.916;2023-11-21T10:50:29;101376.78;;;10.44;100.00
74329;BME280;62749;51.982;5.916;2023-11-21T10:53:01;101381.22;;;10.44;100.00
74329;BME280;62749;51.982;5.916;2023-11-21T10:55:37;101382.94;;;10.45;100.00
74329;BME280;62749;51.982;5.916;2023-11-21T10:58:14;101391.66;;;10.47;100.00
74329;BME280;62749;51.982;5.916;2023-11-21T11:00:55;101388.09;;;10.48;100.00
74329;BME280;62749;51.982;5.916;2023-11-21T11:03:26;101395.13;;;10.49;100.00
74329;BME280;62749;51.982;5.916;2023-11-21T11:06:07;101397.69;;;10.52;100.00
74329;BME280;62749;51.982;5.916;2023-11-21T11:11:51;101416.09;;;10.54;100.00
74329;BME280;62749;51.982;5.916;2023-11-21T11:14:20;101411.06;;;10.46;100.00
74329;BME280;62749;51.982;5.916;2023-11-21T11:17:04;101427.97;;;10.40;100.00
74329;BME280;62749;51.982;5.916;2023-11-21T11:23:13;101443.03;;;10.37;100.00
74329;BME280;62749;51.982;5.916;2023-11-21T11:26:08;101432.00;;;10.24;100.00
74329;BME280;62749;51.982;5.916;2023-11-21T11:28:52;101444.13;;;10.29;100.00
74329;BME280;62749;51.982;5.916;2023-11-21T11:31:46;101439.75;;;10.28;100.00
74329;BME280;62749;51.982;5.916;2023-11-21T11:37:36;101451.28;;;10.26;100.00
74329;BME280;62749;51.982;5.916;2023-11-21T11:40:25;101446.78;;;10.29;100.00
74329;BME280;62749;51.982;5.916;2023-11-21T11:43:08;101449.56;;;10.25;100.00
74329;BME280;62749;51.982;5.916;2023-11-21T11:51:31;101449.66;;;10.22;100.00
74329;BME280;62749;51.982;5.916;2023-11-21T12:00:44;101458.34;;;10.25;100.00
74329;BME280;62749;51.982;5.916;2023-11-21T12:03:27;101460.81;;;10.32;100.00
74329;BME280;62749;51.982;5.916;2023-11-21T12:06:06;101467.94;;;10.28;100.00
74329;BME280;62749;51.982;5.916;2023-11-21T12:15:00;101493.34;;;10.32;100.00
74329;BME280;62749;51.982;5.916;2023-11-21T12:17:54;101484.47;;;10.35;100.00
74329;BME280;62749;51.982;5.916;2023-11-21T12:20:41;101492.34;;;10.36;100.00
74329;BME280;62749;51.982;5.916;2023-11-21T12:23:13;101496.75;;;10.36;100.00
74329;BME280;62749;51.982;5.916;2023-11-21T12:25:43;101503.06;;;10.32;100.00
74329;BME280;62749;51.982;5.916;2023-11-21T12:28:18;101503.84;;;10.34;100.00
74329;BME280;62749;51.982;5.916;2023-11-21T12:31:05;101507.69;;;10.23;100.00
74329;BME280;62749;51.982;5.916;2023-11-21T12:33:49;101511.22;;;10.22;100.00
74329;BME280;62749;51.982;5.916;2023-11-21T12:36:28;101513.16;;;10.17;100.00
74329;BME280;62749;51.982;5.916;2023-11-21T12:39:13;101514.66;;;10.26;100.00
74329;BME280;62749;51.982;5.916;2023-11-21T12:41:57;101521.50;;;10.33;100.00
74329;BME280;62749;51.982;5.916;2023-11-21T12:44:28;101523.31;;;10.31;100.00
74329;BME280;62749;51.982;5.916;2023-11-21T12:47:07;101526.94;;;10.27;100.00
74329;BME280;62749;51.982;5.916;2023-11-21T12:53:02;101526.94;;;10.27;100.00
74329;BME280;62749;51.982;5.916;2023-11-21T12:55:36;101520.88;;;10.25;100.00
74329;BME280;62749;51.982;5.916;2023-11-21T12:58:20;101539.16;;;10.31;100.00
74329;BME280;62749;51.982;5.916;2023-11-21T13:00:49;101525.03;;;10.32;100.00
74329;BME280;62749;51.982;5.916;2023-11-21T13:03:36;101528.66;;;10.29;100.00
74329;BME280;62749;51.982;5.916;2023-11-21T13:06:23;101528.88;;;10.22;100.00
74329;BME280;62749;51.982;5.916;2023-11-21T13:09:14;101530.97;;;10.09;100.00
74329;BME280;62749;51.982;5.916;2023-11-21T13:11:59;101537.56;;;9.94;100.00
74329;BME280;62749;51.982;5.916;2023-11-21T13:14:31;101533.13;;;9.94;100.00
74329;BME280;62749;51.982;5.916;2023-11-21T13:17:06;101535.75;;;9.94;100.00
74329;BME280;62749;51.982;5.916;2023-11-21T13:19:52;101540.13;;;9.97;100.00
74329;BME280;62749;51.982;5.916;2023-11-21T13:22:24;101538.25;;;10.01;100.00
74329;BME280;62749;51.982;5.916;2023-11-21T13:25:21;101535.47;;;10.05;100.00
74329;BME280;62749;51.982;5.916;2023-11-21T13:27:52;101542.50;;;10.06;100.00
74329;BME280;62749;51.982;5.916;2023-11-21T13:30:26;101553.00;;;10.08;100.00
74329;BME280;62749;51.982;5.916;2023-11-21T13:36:25;101529.22;;;10.08;100.00
74329;BME280;62749;51.982;5.916;2023-11-21T13:39:19;101546.88;;;10.07;100.00
74329;BME280;62749;51.982;5.916;2023-11-21T13:41:59;101553.81;;;10.11;100.00
74329;BME280;62749;51.982;5.916;2023-11-21T13:44:58;101560.72;;;10.16;100.00
74329;BME280;62749;51.982;5.916;2023-11-21T13:47:28;101562.38;;;10.20;100.00
74329;BME280;62749;51.982;5.916;2023-11-21T13:49:59;101564.16;;;10.19;100.00
74329;BME280;62749;51.982;5.916;2023-11-21T13:52:36;101572.94;;;10.20;100.00
74329;BME280;62749;51.982;5.916;2023-11-21T13:55:18;101579.16;;;10.17;100.00
74329;BME280;62749;51.982;5.916;2023-11-21T13:58:18;101595.78;;;10.21;100.00
74329;BME280;62749;51.982;5.916;2023-11-21T14:01:00;101596.81;;;10.15;100.00
74329;BME280;62749;51.982;5.916;2023-11-21T14:06:48;101609.78;;;9.90;100.00
74329;BME280;62749;51.982;5.916;2023-11-21T14:09:24;101620.78;;;9.74;100.00
74329;BME280;62749;51.982;5.916;2023-11-21T14:12:23;101614.00;;;9.62;100.00
74329;BME280;62749;51.982;5.916;2023-11-21T14:14:55;101629.69;;;9.68;100.00
74329;BME280;62749;51.982;5.916;2023-11-21T14:17:47;101627.81;;;9.74;100.00
74329;BME280;62749;51.982;5.916;2023-11-21T14:20:26;101637.50;;;9.73;100.00
74329;BME280;62749;51.982;5.916;2023-11-21T14:23:12;101640.16;;;9.72;100.00
74329;BME280;62749;51.982;5.916;2023-11-21T14:28:57;101644.41;;;9.77;100.00
74329;BME280;62749;51.982;5.916;2023-11-21T14:31:38;101656.19;;;9.64;100.00
74329;BME280;62749;51.982;5.916;2023-11-21T14:34:28;101663.38;;;9.57;100.00
74329;BME280;62749;51.982;5.916;2023-11-21T14:36:59;101662.53;;;9.57;100.00
74329;BME280;62749;51.982;5.916;2023-11-21T14:39:55;101668.75;;;9.54;100.00
74329;BME280;62749;51.982;5.916;2023-11-21T14:42:46;101667.63;;;9.63;100.00
74329;BME280;62749;51.982;5.916;2023-11-21T14:45:23;101678.19;;;9.63;100.00
74329;BME280;62749;51.982;5.916;2023-11-21T14:47:56;101667.84;;;9.55;100.00
74329;BME280;62749;51.982;5.916;2023-11-21T14:50:57;101672.16;;;9.58;100.00
74329;BME280;62749;51.982;5.916;2023-11-21T14:57:01;101688.91;;;9.57;100.00
74329;BME280;62749;51.982;5.916;2023-11-21T14:59:28;101702.31;;;9.46;100.00
74329;BME280;62749;51.982;5.916;2023-11-21T15:02:06;101706.69;;;9.48;100.00
74329;BME280;62749;51.982;5.916;2023-11-21T15:05:06;101720.78;;;9.47;100.00
74329;BME280;62749;51.982;5.916;2023-11-21T15:07:43;101724.69;;;9.28;100.00
74329;BME280;62749;51.982;5.916;2023-11-21T15:10:27;101732.78;;;9.20;100.00
74329;BME280;62749;51.982;5.916;2023-11-21T15:13:26;101742.47;;;9.19;100.00
74329;BME280;62749;51.982;5.916;2023-11-21T15:16:03;101749.38;;;9.24;100.00
74329;BME280;62749;51.982;5.916;2023-11-21T15:18:36;101751.06;;;9.28;100.00
74329;BME280;62749;51.982;5.916;2023-11-21T15:21:17;101757.31;;;9.24;100.00
74329;BME280;62749;51.982;5.916;2023-11-21T15:24:16;101756.75;;;9.08;100.00
74329;BME280;62749;51.982;5.916;2023-11-21T15:26:47;101767.28;;;9.09;100.00
74329;BME280;62749;51.982;5.916;2023-11-21T15:29:33;101773.66;;;8.97;100.00
74329;BME280;62749;51.982;5.916;2023-11-21T15:32:04;101771.16;;;8.89;100.00
74329;BME280;62749;51.982;5.916;2023-11-21T15:34:59;101781.84;;;8.83;100.00
74329;BME280;62749;51.982;5.916;2023-11-21T15:37:43;101797.72;;;8.79;100.00
74329;BME280;62749;51.982;5.916;2023-11-21T15:40:30;101800.34;;;8.80;100.00
74329;BME280;62749;51.982;5.916;2023-11-21T15:52:27;101807.25;;;8.84;100.00
74329;BME280;62749;51.982;5.916;2023-11-21T15:55:09;101812.53;;;8.84;100.00
74329;BME280;62749;51.982;5.916;2023-11-21T15:57:56;101827.63;;;8.76;100.00
74329;BME280;62749;51.982;5.916;2023-11-21T16:03:49;101831.22;;;8.72;100.00
74329;BME280;62749;51.982;5.916;2023-11-21T16:06:21;101841.03;;;8.64;100.00
74329;BME280;62749;51.982;5.916;2023-11-21T16:09:04;101839.53;;;8.49;100.00
74329;BME280;62749;51.982;5.916;2023-11-21T16:11:54;101840.59;;;8.35;100.00
74329;BME280;62749;51.982;5.916;2023-11-21T16:17:47;101861.66;;;8.34;100.00
74329;BME280;62749;51.982;5.916;2023-11-21T16:20:30;101870.59;;;8.25;100.00
74329;BME280;62749;51.982;5.916;2023-11-21T16:23:17;101867.19;;;8.18;100.00
74329;BME280;62749;51.982;5.916;2023-11-21T16:26:00;101874.22;;;8.16;100.00
74329;BME280;62749;51.982;5.916;2023-11-21T16:28:56;101875.97;;;8.17;100.00
74329;BME280;62749;51.982;5.916;2023-11-21T16:31:26;101883.03;;;8.12;100.00
74329;BME280;62749;51.982;5.916;2023-11-21T16:34:12;101899.81;;;8.05;100.00
74329;BME280;62749;51.982;5.916;2023-11-21T16:36:49;101898.19;;;7.94;100.00
74329;BME280;62749;51.982;5.916;2023-11-21T16:39:30;101909.53;;;7.99;100.00
74329;BME280;62749;51.982;5.916;2023-11-21T16:45:15;101916.59;;;7.96;100.00
74329;BME280;62749;51.982;5.916;2023-11-21T16:47:51;101917.53;;;7.92;100.00
74329;BME280;62749;51.982;5.916;2023-11-21T16:50:31;101924.63;;;7.87;100.00
74329;BME280;62749;51.982;5.916;2023-11-21T16:53:11;101936.91;;;7.85;100.00
74329;BME280;62749;51.982;5.916;2023-11-21T16:55:47;101943.09;;;7.80;100.00
74329;BME280;62749;51.982;5.916;2023-11-21T16:58:35;101945.81;;;7.73;100.00
74329;BME280;62749;51.982;5.916;2023-11-21T17:04:45;101963.38;;;7.71;100.00
74329;BME280;62749;51.982;5.916;2023-11-21T17:07:17;101966.94;;;7.65;100.00
74329;BME280;62749;51.982;5.916;2023-11-21T17:12:55;101987.19;;;7.58;100.00
74329;BME280;62749;51.982;5.916;2023-11-21T17:15:55;101992.53;;;7.52;100.00
74329;BME280;62749;51.982;5.916;2023-11-21T17:18:25;102002.16;;;7.51;100.00